sensor_id;sensor_type;location;lat;lon;timestamp;P1;durP1;ratioP1;P2;durP2;ratioP2
69771;SDS011;57046;45.988;18.664;2022-07-29T00:01:28;4.40;;;3.50;;
69771;SDS011;57046;45.988;18.664;2022-07-29T00:03:53;3.40;;;3.10;;
69771;SDS011;57046;45.988;18.664;2022-07-29T00:06:19;5.90;;;3.57;;
69771;SDS011;57046;45.988;18.664;2022-07-29T00:08:44;5.70;;;4.07;;
69771;SDS011;57046;45.988;18.664;2022-07-29T00:11:09;4.70;;;3.57;;
69771;SDS011;57046;45.988;18.664;2022-07-29T00:13:35;3.80;;;2.90;;
69771;SDS011;57046;45.988;18.664;2022-07-29T00:16:00;6.17;;;3.60;;
69771;SDS011;57046;45.988;18.664;2022-07-29T00:18:25;6.27;;;3.43;;
69771;SDS011;57046;45.988;18.664;2022-07-29T00:20:51;7.17;;;4.13;;
69771;SDS011;57046;45.988;18.664;2022-07-29T00:23:16;3.70;;;3.30;;
69771;SDS011;57046;45.988;18.664;2022-07-29T00:25:41;4.07;;;3.65;;
69771;SDS011;57046;45.988;18.664;2022-07-29T00:28:07;4.43;;;3.90;;
69771;SDS011;57046;45.988;18.664;2022-07-29T00:30:32;7.20;;;4.03;;
69771;SDS011;57046;45.988;18.664;2022-07-29T00:32:57;5.00;;;4.10;;
69771;SDS011;57046;45.988;18.664;2022-07-29T00:35:23;4.67;;;3.67;;
69771;SDS011;57046;45.988;18.664;2022-07-29T00:37:48;6.82;;;4.18;;
69771;SDS011;57046;45.988;18.664;2022-07-29T00:40:14;5.70;;;3.57;;
69771;SDS011;57046;45.988;18.664;2022-07-29T00:42:45;7.57;;;4.20;;
69771;SDS011;57046;45.988;18.664;2022-07-29T00:45:12;4.43;;;3.78;;
69771;SDS011;57046;45.988;18.664;2022-07-29T00:47:39;5.28;;;3.75;;
69771;SDS011;57046;45.988;18.664;2022-07-29T00:50:05;5.13;;;3.93;;
69771;SDS011;57046;45.988;18.664;2022-07-29T00:52:33;4.53;;;3.90;;
69771;SDS011;57046;45.988;18.664;2022-07-29T00:55:00;6.18;;;3.90;;
69771;SDS011;57046;45.988;18.664;2022-07-29T00:57:27;4.18;;;3.60;;
69771;SDS011;57046;45.988;18.664;2022-07-29T00:59:52;5.27;;;3.97;;
69771;SDS011;57046;45.988;18.664;2022-07-29T01:02:17;8.17;;;4.07;;
69771;SDS011;57046;45.988;18.664;2022-07-29T01:04:43;4.53;;;4.00;;
69771;SDS011;57046;45.988;18.664;2022-07-29T01:07:08;6.70;;;4.50;;
69771;SDS011;57046;45.988;18.664;2022-07-29T01:09:34;4.45;;;4.05;;
69771;SDS011;57046;45.988;18.664;2022-07-29T01:12:01;5.23;;;4.43;;
69771;SDS011;57046;45.988;18.664;2022-07-29T01:14:28;7.00;;;4.40;;
69771;SDS011;57046;45.988;18.664;2022-07-29T01:16:55;4.95;;;3.92;;
69771;SDS011;57046;45.988;18.664;2022-07-29T01:21:57;6.20;;;4.25;;
69771;SDS011;57046;45.988;18.664;2022-07-29T01:30:36;5.47;;;4.55;;
69771;SDS011;57046;45.988;18.664;2022-07-29T01:33:06;8.40;;;4.25;;
69771;SDS011;57046;45.988;18.664;2022-07-29T01:35:38;5.63;;;4.15;;
69771;SDS011;57046;45.988;18.664;2022-07-29T01:40:38;6.13;;;4.17;;
69771;SDS011;57046;45.988;18.664;2022-07-29T01:43:10;7.15;;;4.63;;
69771;SDS011;57046;45.988;18.664;2022-07-29T01:45:53;6.32;;;4.47;;
69771;SDS011;57046;45.988;18.664;2022-07-29T01:48:23;4.70;;;4.20;;
69771;SDS011;57046;45.988;18.664;2022-07-29T01:50:55;4.97;;;4.53;;
69771;SDS011;57046;45.988;18.664;2022-07-29T01:53:42;5.03;;;4.37;;
69771;SDS011;57046;45.988;18.664;2022-07-29T01:56:09;6.93;;;4.93;;
69771;SDS011;57046;45.988;18.664;2022-07-29T01:58:36;7.60;;;4.47;;
69771;SDS011;57046;45.988;18.664;2022-07-29T02:01:05;7.72;;;4.35;;
69771;SDS011;57046;45.988;18.664;2022-07-29T02:03:33;4.90;;;4.28;;
69771;SDS011;57046;45.988;18.664;2022-07-29T02:06:01;5.43;;;4.50;;
69771;SDS011;57046;45.988;18.664;2022-07-29T02:08:29;7.07;;;4.93;;
69771;SDS011;57046;45.988;18.664;2022-07-29T02:10:57;7.25;;;5.00;;
69771;SDS011;57046;45.988;18.664;2022-07-29T02:13:24;7.05;;;5.07;;
69771;SDS011;57046;45.988;18.664;2022-07-29T02:15:52;7.30;;;4.53;;
69771;SDS011;57046;45.988;18.664;2022-07-29T02:18:20;5.90;;;5.30;;
69771;SDS011;57046;45.988;18.664;2022-07-29T02:20:49;6.07;;;4.50;;
69771;SDS011;57046;45.988;18.664;2022-07-29T02:23:18;7.22;;;4.97;;
69771;SDS011;57046;45.988;18.664;2022-07-29T02:25:53;8.85;;;4.78;;
69771;SDS011;57046;45.988;18.664;2022-07-29T02:28:25;6.50;;;4.60;;
69771;SDS011;57046;45.988;18.664;2022-07-29T02:30:52;7.10;;;4.85;;
69771;SDS011;57046;45.988;18.664;2022-07-29T02:33:19;5.33;;;4.83;;
69771;SDS011;57046;45.988;18.664;2022-07-29T02:35:47;6.57;;;4.90;;
69771;SDS011;57046;45.988;18.664;2022-07-29T02:38:15;5.88;;;4.47;;
69771;SDS011;57046;45.988;18.664;2022-07-29T02:40:41;6.93;;;4.72;;
69771;SDS011;57046;45.988;18.664;2022-07-29T02:43:08;4.95;;;4.45;;
69771;SDS011;57046;45.988;18.664;2022-07-29T02:45:34;6.50;;;4.20;;
69771;SDS011;57046;45.988;18.664;2022-07-29T02:48:00;6.40;;;4.00;;
69771;SDS011;57046;45.988;18.664;2022-07-29T02:50:34;6.40;;;4.90;;
69771;SDS011;57046;45.988;18.664;2022-07-29T02:53:12;6.67;;;4.83;;
69771;SDS011;57046;45.988;18.664;2022-07-29T02:55:42;6.57;;;5.10;;
69771;SDS011;57046;45.988;18.664;2022-07-29T02:58:14;6.88;;;4.82;;
69771;SDS011;57046;45.988;18.664;2022-07-29T03:00:48;6.45;;;4.65;;
69771;SDS011;57046;45.988;18.664;2022-07-29T03:03:16;7.07;;;4.55;;
69771;SDS011;57046;45.988;18.664;2022-07-29T03:05:43;7.30;;;4.97;;
69771;SDS011;57046;45.988;18.664;2022-07-29T03:08:10;7.47;;;5.45;;
69771;SDS011;57046;45.988;18.664;2022-07-29T03:10:37;5.93;;;5.00;;
69771;SDS011;57046;45.988;18.664;2022-07-29T03:13:07;8.90;;;5.37;;
69771;SDS011;57046;45.988;18.664;2022-07-29T03:15:34;6.47;;;4.72;;
69771;SDS011;57046;45.988;18.664;2022-07-29T03:18:00;7.47;;;5.20;;
69771;SDS011;57046;45.988;18.664;2022-07-29T03:20:26;6.30;;;5.18;;
69771;SDS011;57046;45.988;18.664;2022-07-29T03:22:52;6.73;;;4.70;;
69771;SDS011;57046;45.988;18.664;2022-07-29T03:25:18;7.17;;;5.40;;
69771;SDS011;57046;45.988;18.664;2022-07-29T03:27:45;6.28;;;5.30;;
69771;SDS011;57046;45.988;18.664;2022-07-29T03:30:11;7.95;;;5.20;;
69771;SDS011;57046;45.988;18.664;2022-07-29T03:32:37;6.55;;;5.30;;
69771;SDS011;57046;45.988;18.664;2022-07-29T03:35:04;7.63;;;5.67;;
69771;SDS011;57046;45.988;18.664;2022-07-29T03:37:30;6.00;;;5.22;;
69771;SDS011;57046;45.988;18.664;2022-07-29T03:39:56;10.02;;;5.82;;
69771;SDS011;57046;45.988;18.664;2022-07-29T03:42:27;7.33;;;5.97;;
69771;SDS011;57046;45.988;18.664;2022-07-29T03:45:00;8.68;;;5.47;;
69771;SDS011;57046;45.988;18.664;2022-07-29T03:47:28;9.75;;;6.40;;
69771;SDS011;57046;45.988;18.664;2022-07-29T03:49:57;6.93;;;5.97;;
69771;SDS011;57046;45.988;18.664;2022-07-29T03:52:26;7.97;;;6.10;;
69771;SDS011;57046;45.988;18.664;2022-07-29T03:54:52;9.60;;;6.70;;
69771;SDS011;57046;45.988;18.664;2022-07-29T03:57:18;8.88;;;6.90;;
69771;SDS011;57046;45.988;18.664;2022-07-29T03:59:47;6.97;;;5.97;;
69771;SDS011;57046;45.988;18.664;2022-07-29T04:02:13;8.25;;;6.78;;
69771;SDS011;57046;45.988;18.664;2022-07-29T04:04:39;8.52;;;6.97;;
69771;SDS011;57046;45.988;18.664;2022-07-29T04:07:04;8.00;;;6.53;;
69771;SDS011;57046;45.988;18.664;2022-07-29T04:09:30;7.83;;;6.77;;
69771;SDS011;57046;45.988;18.664;2022-07-29T04:11:56;13.13;;;6.43;;
69771;SDS011;57046;45.988;18.664;2022-07-29T04:14:21;9.87;;;7.13;;
69771;SDS011;57046;45.988;18.664;2022-07-29T04:16:46;8.83;;;6.43;;
69771;SDS011;57046;45.988;18.664;2022-07-29T04:19:12;9.20;;;6.20;;
69771;SDS011;57046;45.988;18.664;2022-07-29T04:21:38;8.93;;;6.00;;
69771;SDS011;57046;45.988;18.664;2022-07-29T04:24:05;7.20;;;5.80;;
69771;SDS011;57046;45.988;18.664;2022-07-29T04:26:31;7.15;;;6.25;;
69771;SDS011;57046;45.988;18.664;2022-07-29T04:28:56;7.70;;;6.50;;
69771;SDS011;57046;45.988;18.664;2022-07-29T04:31:22;7.70;;;5.90;;
69771;SDS011;57046;45.988;18.664;2022-07-29T04:33:47;7.60;;;6.53;;
69771;SDS011;57046;45.988;18.664;2022-07-29T04:36:12;7.43;;;6.20;;
69771;SDS011;57046;45.988;18.664;2022-07-29T04:38:38;9.48;;;6.20;;
69771;SDS011;57046;45.988;18.664;2022-07-29T04:41:03;7.50;;;6.10;;
69771;SDS011;57046;45.988;18.664;2022-07-29T04:43:29;8.52;;;6.88;;
69771;SDS011;57046;45.988;18.664;2022-07-29T04:45:54;7.10;;;5.73;;
69771;SDS011;57046;45.988;18.664;2022-07-29T04:48:20;8.47;;;5.97;;
69771;SDS011;57046;45.988;18.664;2022-07-29T04:50:45;11.90;;;6.40;;
69771;SDS011;57046;45.988;18.664;2022-07-29T04:53:10;7.87;;;6.30;;
69771;SDS011;57046;45.988;18.664;2022-07-29T04:55:36;12.37;;;6.07;;
69771;SDS011;57046;45.988;18.664;2022-07-29T04:58:01;6.83;;;5.70;;
69771;SDS011;57046;45.988;18.664;2022-07-29T05:00:27;7.83;;;5.97;;
69771;SDS011;57046;45.988;18.664;2022-07-29T05:02:52;8.85;;;5.95;;
69771;SDS011;57046;45.988;18.664;2022-07-29T05:05:17;8.50;;;5.60;;
69771;SDS011;57046;45.988;18.664;2022-07-29T05:07:43;7.13;;;6.07;;
69771;SDS011;57046;45.988;18.664;2022-07-29T05:10:08;7.73;;;5.17;;
69771;SDS011;57046;45.988;18.664;2022-07-29T05:12:34;8.73;;;5.50;;
69771;SDS011;57046;45.988;18.664;2022-07-29T05:14:59;7.73;;;5.87;;
69771;SDS011;57046;45.988;18.664;2022-07-29T05:17:25;8.03;;;6.03;;
69771;SDS011;57046;45.988;18.664;2022-07-29T05:19:50;6.40;;;5.72;;
69771;SDS011;57046;45.988;18.664;2022-07-29T05:22:16;6.53;;;5.27;;
69771;SDS011;57046;45.988;18.664;2022-07-29T05:24:43;8.75;;;5.28;;
69771;SDS011;57046;45.988;18.664;2022-07-29T05:27:08;7.40;;;5.40;;
69771;SDS011;57046;45.988;18.664;2022-07-29T05:29:34;9.40;;;4.93;;
69771;SDS011;57046;45.988;18.664;2022-07-29T05:31:59;5.50;;;4.53;;
69771;SDS011;57046;45.988;18.664;2022-07-29T05:34:24;6.73;;;4.50;;
69771;SDS011;57046;45.988;18.664;2022-07-29T05:36:50;5.67;;;4.07;;
69771;SDS011;57046;45.988;18.664;2022-07-29T05:39:15;5.93;;;4.37;;
69771;SDS011;57046;45.988;18.664;2022-07-29T05:41:40;6.97;;;4.73;;
69771;SDS011;57046;45.988;18.664;2022-07-29T05:44:06;4.72;;;4.18;;
69771;SDS011;57046;45.988;18.664;2022-07-29T05:46:31;6.10;;;4.43;;
69771;SDS011;57046;45.988;18.664;2022-07-29T05:49:00;4.97;;;4.30;;
69771;SDS011;57046;45.988;18.664;2022-07-29T05:51:25;5.57;;;4.07;;
69771;SDS011;57046;45.988;18.664;2022-07-29T05:53:51;6.70;;;4.13;;
69771;SDS011;57046;45.988;18.664;2022-07-29T05:56:16;6.20;;;4.23;;
69771;SDS011;57046;45.988;18.664;2022-07-29T05:58:41;5.53;;;4.20;;
69771;SDS011;57046;45.988;18.664;2022-07-29T06:01:07;6.63;;;4.30;;
69771;SDS011;57046;45.988;18.664;2022-07-29T06:03:32;9.70;;;4.50;;
69771;SDS011;57046;45.988;18.664;2022-07-29T06:05:57;5.53;;;4.07;;
69771;SDS011;57046;45.988;18.664;2022-07-29T06:08:23;6.97;;;4.03;;
69771;SDS011;57046;45.988;18.664;2022-07-29T06:10:48;6.60;;;4.00;;
69771;SDS011;57046;45.988;18.664;2022-07-29T06:13:14;4.63;;;4.13;;
69771;SDS011;57046;45.988;18.664;2022-07-29T06:15:39;6.67;;;4.03;;
69771;SDS011;57046;45.988;18.664;2022-07-29T06:18:04;6.07;;;3.87;;
69771;SDS011;57046;45.988;18.664;2022-07-29T06:20:30;6.75;;;3.95;;
69771;SDS011;57046;45.988;18.664;2022-07-29T06:22:56;7.00;;;3.70;;
69771;SDS011;57046;45.988;18.664;2022-07-29T06:25:22;5.18;;;4.00;;
69771;SDS011;57046;45.988;18.664;2022-07-29T06:27:47;4.80;;;4.30;;
69771;SDS011;57046;45.988;18.664;2022-07-29T06:30:13;7.07;;;4.47;;
69771;SDS011;57046;45.988;18.664;2022-07-29T06:32:38;4.17;;;3.73;;
69771;SDS011;57046;45.988;18.664;2022-07-29T06:35:04;5.20;;;4.15;;
69771;SDS011;57046;45.988;18.664;2022-07-29T06:37:30;10.20;;;4.17;;
69771;SDS011;57046;45.988;18.664;2022-07-29T06:39:55;6.17;;;3.80;;
69771;SDS011;57046;45.988;18.664;2022-07-29T06:42:21;6.25;;;4.10;;
69771;SDS011;57046;45.988;18.664;2022-07-29T06:44:47;7.93;;;4.00;;
69771;SDS011;57046;45.988;18.664;2022-07-29T06:47:13;12.32;;;4.85;;
69771;SDS011;57046;45.988;18.664;2022-07-29T06:49:39;5.77;;;3.67;;
69771;SDS011;57046;45.988;18.664;2022-07-29T06:52:04;5.78;;;4.38;;
69771;SDS011;57046;45.988;18.664;2022-07-29T06:54:30;7.90;;;4.40;;
69771;SDS011;57046;45.988;18.664;2022-07-29T06:56:56;7.53;;;4.43;;
69771;SDS011;57046;45.988;18.664;2022-07-29T06:59:21;4.57;;;4.17;;
69771;SDS011;57046;45.988;18.664;2022-07-29T07:01:47;5.72;;;4.13;;
69771;SDS011;57046;45.988;18.664;2022-07-29T07:04:13;6.90;;;4.20;;
69771;SDS011;57046;45.988;18.664;2022-07-29T07:06:38;4.80;;;4.20;;
69771;SDS011;57046;45.988;18.664;2022-07-29T07:09:04;4.50;;;3.90;;
69771;SDS011;57046;45.988;18.664;2022-07-29T07:11:30;6.47;;;4.43;;
69771;SDS011;57046;45.988;18.664;2022-07-29T07:13:56;5.00;;;3.70;;
69771;SDS011;57046;45.988;18.664;2022-07-29T07:16:22;8.85;;;3.72;;
69771;SDS011;57046;45.988;18.664;2022-07-29T07:18:47;7.90;;;4.37;;
69771;SDS011;57046;45.988;18.664;2022-07-29T07:21:13;4.90;;;4.03;;
69771;SDS011;57046;45.988;18.664;2022-07-29T07:23:39;7.80;;;4.67;;
69771;SDS011;57046;45.988;18.664;2022-07-29T07:26:05;6.93;;;3.83;;
69771;SDS011;57046;45.988;18.664;2022-07-29T07:28:31;6.97;;;3.90;;
69771;SDS011;57046;45.988;18.664;2022-07-29T07:30:57;5.30;;;4.53;;
69771;SDS011;57046;45.988;18.664;2022-07-29T07:33:23;6.10;;;4.67;;
69771;SDS011;57046;45.988;18.664;2022-07-29T07:35:49;9.88;;;4.38;;
69771;SDS011;57046;45.988;18.664;2022-07-29T07:38:15;5.05;;;4.00;;
69771;SDS011;57046;45.988;18.664;2022-07-29T07:40:40;4.60;;;4.13;;
69771;SDS011;57046;45.988;18.664;2022-07-29T07:43:06;4.90;;;4.32;;
69771;SDS011;57046;45.988;18.664;2022-07-29T07:45:32;6.40;;;4.45;;
69771;SDS011;57046;45.988;18.664;2022-07-29T07:47:58;5.83;;;3.80;;
69771;SDS011;57046;45.988;18.664;2022-07-29T07:50:24;7.57;;;4.25;;
69771;SDS011;57046;45.988;18.664;2022-07-29T07:52:52;9.88;;;4.07;;
69771;SDS011;57046;45.988;18.664;2022-07-29T07:55:19;7.35;;;4.18;;
69771;SDS011;57046;45.988;18.664;2022-07-29T07:57:49;4.38;;;3.97;;
69771;SDS011;57046;45.988;18.664;2022-07-29T08:00:17;4.70;;;3.20;;
69771;SDS011;57046;45.988;18.664;2022-07-29T08:02:43;8.60;;;3.67;;
69771;SDS011;57046;45.988;18.664;2022-07-29T08:05:09;6.10;;;3.90;;
69771;SDS011;57046;45.988;18.664;2022-07-29T08:07:35;9.68;;;4.03;;
69771;SDS011;57046;45.988;18.664;2022-07-29T08:10:01;8.40;;;3.72;;
69771;SDS011;57046;45.988;18.664;2022-07-29T08:12:28;5.93;;;4.10;;
69771;SDS011;57046;45.988;18.664;2022-07-29T08:14:53;8.07;;;4.53;;
69771;SDS011;57046;45.988;18.664;2022-07-29T08:17:18;5.43;;;4.10;;
69771;SDS011;57046;45.988;18.664;2022-07-29T08:19:44;6.30;;;3.88;;
69771;SDS011;57046;45.988;18.664;2022-07-29T08:22:09;4.53;;;3.90;;
69771;SDS011;57046;45.988;18.664;2022-07-29T08:24:35;9.67;;;3.63;;
69771;SDS011;57046;45.988;18.664;2022-07-29T08:27:00;4.87;;;3.83;;
69771;SDS011;57046;45.988;18.664;2022-07-29T08:29:26;4.27;;;3.47;;
69771;SDS011;57046;45.988;18.664;2022-07-29T08:31:51;4.90;;;3.17;;
69771;SDS011;57046;45.988;18.664;2022-07-29T08:34:16;6.40;;;3.37;;
69771;SDS011;57046;45.988;18.664;2022-07-29T08:36:42;4.20;;;3.25;;
69771;SDS011;57046;45.988;18.664;2022-07-29T08:39:07;7.27;;;3.20;;
69771;SDS011;57046;45.988;18.664;2022-07-29T08:41:32;4.80;;;3.50;;
69771;SDS011;57046;45.988;18.664;2022-07-29T08:43:58;7.53;;;3.83;;
69771;SDS011;57046;45.988;18.664;2022-07-29T08:46:23;10.68;;;3.92;;
69771;SDS011;57046;45.988;18.664;2022-07-29T08:48:51;5.00;;;3.80;;
69771;SDS011;57046;45.988;18.664;2022-07-29T08:51:18;6.28;;;3.53;;
69771;SDS011;57046;45.988;18.664;2022-07-29T08:53:46;4.33;;;3.30;;
69771;SDS011;57046;45.988;18.664;2022-07-29T08:56:13;6.23;;;3.13;;
69771;SDS011;57046;45.988;18.664;2022-07-29T08:58:40;7.32;;;3.70;;
69771;SDS011;57046;45.988;18.664;2022-07-29T09:01:06;5.43;;;4.13;;
69771;SDS011;57046;45.988;18.664;2022-07-29T09:03:34;10.55;;;4.00;;
69771;SDS011;57046;45.988;18.664;2022-07-29T09:06:02;7.03;;;4.75;;
69771;SDS011;57046;45.988;18.664;2022-07-29T09:08:29;7.82;;;4.22;;
69771;SDS011;57046;45.988;18.664;2022-07-29T09:10:56;6.70;;;4.00;;
69771;SDS011;57046;45.988;18.664;2022-07-29T09:13:23;8.45;;;4.32;;
69771;SDS011;57046;45.988;18.664;2022-07-29T09:15:49;7.67;;;4.30;;
69771;SDS011;57046;45.988;18.664;2022-07-29T09:18:34;8.33;;;3.70;;
69771;SDS011;57046;45.988;18.664;2022-07-29T09:21:00;5.30;;;4.00;;
69771;SDS011;57046;45.988;18.664;2022-07-29T09:23:28;5.57;;;3.67;;
69771;SDS011;57046;45.988;18.664;2022-07-29T09:25:59;6.03;;;3.28;;
69771;SDS011;57046;45.988;18.664;2022-07-29T09:28:31;6.53;;;4.30;;
69771;SDS011;57046;45.988;18.664;2022-07-29T09:30:57;5.00;;;4.20;;
69771;SDS011;57046;45.988;18.664;2022-07-29T09:33:24;11.45;;;5.00;;
69771;SDS011;57046;45.988;18.664;2022-07-29T09:36:03;5.90;;;4.20;;
69771;SDS011;57046;45.988;18.664;2022-07-29T09:38:29;6.47;;;4.20;;
69771;SDS011;57046;45.988;18.664;2022-07-29T09:40:56;6.73;;;3.77;;
69771;SDS011;57046;45.988;18.664;2022-07-29T09:43:23;7.50;;;4.17;;
69771;SDS011;57046;45.988;18.664;2022-07-29T09:45:49;10.63;;;3.67;;
69771;SDS011;57046;45.988;18.664;2022-07-29T09:48:18;5.00;;;3.80;;
69771;SDS011;57046;45.988;18.664;2022-07-29T09:50:46;6.38;;;3.80;;
69771;SDS011;57046;45.988;18.664;2022-07-29T09:53:21;7.60;;;3.70;;
69771;SDS011;57046;45.988;18.664;2022-07-29T09:55:55;8.75;;;3.90;;
69771;SDS011;57046;45.988;18.664;2022-07-29T09:58:21;5.73;;;3.47;;
69771;SDS011;57046;45.988;18.664;2022-07-29T10:00:48;15.95;;;4.50;;
69771;SDS011;57046;45.988;18.664;2022-07-29T10:03:15;5.07;;;3.75;;
69771;SDS011;57046;45.988;18.664;2022-07-29T10:05:44;5.30;;;3.72;;
69771;SDS011;57046;45.988;18.664;2022-07-29T10:08:29;6.47;;;3.40;;
69771;SDS011;57046;45.988;18.664;2022-07-29T10:11:05;4.22;;;3.22;;
69771;SDS011;57046;45.988;18.664;2022-07-29T10:13:44;5.40;;;3.40;;
69771;SDS011;57046;45.988;18.664;2022-07-29T10:16:16;6.50;;;3.77;;
69771;SDS011;57046;45.988;18.664;2022-07-29T10:18:45;11.82;;;3.67;;
69771;SDS011;57046;45.988;18.664;2022-07-29T10:21:13;4.53;;;4.13;;
69771;SDS011;57046;45.988;18.664;2022-07-29T10:23:41;12.52;;;4.10;;
69771;SDS011;57046;45.988;18.664;2022-07-29T10:26:09;6.68;;;3.65;;
69771;SDS011;57046;45.988;18.664;2022-07-29T10:28:36;4.30;;;3.78;;
69771;SDS011;57046;45.988;18.664;2022-07-29T10:31:05;7.53;;;3.85;;
69771;SDS011;57046;45.988;18.664;2022-07-29T10:36:25;6.07;;;3.92;;
69771;SDS011;57046;45.988;18.664;2022-07-29T10:44:49;8.20;;;3.42;;
69771;SDS011;57046;45.988;18.664;2022-07-29T10:47:20;5.18;;;3.55;;
69771;SDS011;57046;45.988;18.664;2022-07-29T10:50:03;5.95;;;4.07;;
69771;SDS011;57046;45.988;18.664;2022-07-29T10:52:51;5.82;;;4.03;;
69771;SDS011;57046;45.988;18.664;2022-07-29T10:55:35;5.30;;;4.00;;
69771;SDS011;57046;45.988;18.664;2022-07-29T10:58:16;5.35;;;4.18;;
69771;SDS011;57046;45.988;18.664;2022-07-29T11:00:48;6.22;;;4.35;;
69771;SDS011;57046;45.988;18.664;2022-07-29T11:06:14;7.77;;;3.70;;
69771;SDS011;57046;45.988;18.664;2022-07-29T11:08:42;6.60;;;4.03;;
69771;SDS011;57046;45.988;18.664;2022-07-29T11:16:14;6.03;;;4.50;;
69771;SDS011;57046;45.988;18.664;2022-07-29T11:21:53;6.45;;;4.10;;
69771;SDS011;57046;45.988;18.664;2022-07-29T11:24:21;5.40;;;4.47;;
69771;SDS011;57046;45.988;18.664;2022-07-29T11:29:47;9.18;;;4.43;;
69771;SDS011;57046;45.988;18.664;2022-07-29T11:32:19;7.67;;;4.00;;
69771;SDS011;57046;45.988;18.664;2022-07-29T11:34:47;5.20;;;4.70;;
69771;SDS011;57046;45.988;18.664;2022-07-29T11:37:15;5.13;;;4.60;;
69771;SDS011;57046;45.988;18.664;2022-07-29T11:47:31;6.85;;;4.30;;
69771;SDS011;57046;45.988;18.664;2022-07-29T11:49:59;5.72;;;4.32;;
69771;SDS011;57046;45.988;18.664;2022-07-29T11:52:39;9.02;;;4.43;;
69771;SDS011;57046;45.988;18.664;2022-07-29T11:55:06;7.50;;;4.60;;
69771;SDS011;57046;45.988;18.664;2022-07-29T11:57:32;5.27;;;4.20;;
69771;SDS011;57046;45.988;18.664;2022-07-29T11:59:59;5.57;;;4.95;;
69771;SDS011;57046;45.988;18.664;2022-07-29T12:02:25;6.88;;;4.63;;
69771;SDS011;57046;45.988;18.664;2022-07-29T12:05:04;6.18;;;4.90;;
69771;SDS011;57046;45.988;18.664;2022-07-29T12:07:33;7.93;;;4.53;;
69771;SDS011;57046;45.988;18.664;2022-07-29T12:09:59;5.72;;;4.53;;
69771;SDS011;57046;45.988;18.664;2022-07-29T12:12:25;7.20;;;4.85;;
69771;SDS011;57046;45.988;18.664;2022-07-29T12:14:50;7.27;;;4.90;;
69771;SDS011;57046;45.988;18.664;2022-07-29T12:17:29;5.68;;;4.60;;
69771;SDS011;57046;45.988;18.664;2022-07-29T12:19:56;6.00;;;4.43;;
69771;SDS011;57046;45.988;18.664;2022-07-29T12:22:26;7.28;;;4.32;;
69771;SDS011;57046;45.988;18.664;2022-07-29T12:24:53;8.03;;;4.63;;
69771;SDS011;57046;45.988;18.664;2022-07-29T12:27:19;5.23;;;4.67;;
69771;SDS011;57046;45.988;18.664;2022-07-29T12:29:54;6.32;;;4.72;;
69771;SDS011;57046;45.988;18.664;2022-07-29T12:32:21;6.15;;;4.78;;
69771;SDS011;57046;45.988;18.664;2022-07-29T12:34:46;5.30;;;4.80;;
69771;SDS011;57046;45.988;18.664;2022-07-29T12:37:12;6.17;;;4.93;;
69771;SDS011;57046;45.988;18.664;2022-07-29T12:39:39;6.60;;;4.80;;
69771;SDS011;57046;45.988;18.664;2022-07-29T12:42:11;8.80;;;4.82;;
69771;SDS011;57046;45.988;18.664;2022-07-29T12:44:44;5.63;;;4.90;;
69771;SDS011;57046;45.988;18.664;2022-07-29T12:47:14;5.43;;;4.70;;
69771;SDS011;57046;45.988;18.664;2022-07-29T12:49:40;6.53;;;4.93;;
69771;SDS011;57046;45.988;18.664;2022-07-29T12:52:27;6.07;;;4.80;;
69771;SDS011;57046;45.988;18.664;2022-07-29T12:54:51;7.93;;;4.93;;
69771;SDS011;57046;45.988;18.664;2022-07-29T12:57:17;5.30;;;4.80;;
69771;SDS011;57046;45.988;18.664;2022-07-29T12:59:42;10.70;;;4.93;;
69771;SDS011;57046;45.988;18.664;2022-07-29T13:02:20;7.00;;;4.82;;
69771;SDS011;57046;45.988;18.664;2022-07-29T13:04:54;6.53;;;4.57;;
69771;SDS011;57046;45.988;18.664;2022-07-29T13:07:24;7.93;;;5.00;;
69771;SDS011;57046;45.988;18.664;2022-07-29T13:10:09;6.18;;;4.65;;
69771;SDS011;57046;45.988;18.664;2022-07-29T13:12:35;5.28;;;4.78;;
69771;SDS011;57046;45.988;18.664;2022-07-29T13:15:00;9.55;;;4.43;;
69771;SDS011;57046;45.988;18.664;2022-07-29T13:17:41;4.72;;;4.10;;
69771;SDS011;57046;45.988;18.664;2022-07-29T13:20:10;8.32;;;4.40;;
69771;SDS011;57046;45.988;18.664;2022-07-29T13:22:37;4.75;;;4.32;;
69771;SDS011;57046;45.988;18.664;2022-07-29T13:25:03;6.37;;;4.60;;
69771;SDS011;57046;45.988;18.664;2022-07-29T13:27:29;5.68;;;4.28;;
69771;SDS011;57046;45.988;18.664;2022-07-29T13:29:56;7.05;;;4.32;;
69771;SDS011;57046;45.988;18.664;2022-07-29T13:32:23;4.90;;;4.40;;
69771;SDS011;57046;45.988;18.664;2022-07-29T13:34:49;4.63;;;4.13;;
69771;SDS011;57046;45.988;18.664;2022-07-29T13:37:15;6.27;;;4.37;;
69771;SDS011;57046;45.988;18.664;2022-07-29T13:39:44;4.77;;;4.37;;
69771;SDS011;57046;45.988;18.664;2022-07-29T13:42:10;5.50;;;4.20;;
69771;SDS011;57046;45.988;18.664;2022-07-29T13:44:36;8.80;;;4.87;;
69771;SDS011;57046;45.988;18.664;2022-07-29T13:47:01;7.70;;;4.35;;
69771;SDS011;57046;45.988;18.664;2022-07-29T13:49:27;4.53;;;4.13;;
69771;SDS011;57046;45.988;18.664;2022-07-29T13:51:53;4.70;;;4.05;;
69771;SDS011;57046;45.988;18.664;2022-07-29T13:54:18;5.93;;;4.80;;
69771;SDS011;57046;45.988;18.664;2022-07-29T13:56:44;5.15;;;4.50;;
69771;SDS011;57046;45.988;18.664;2022-07-29T13:59:09;5.17;;;4.60;;
69771;SDS011;57046;45.988;18.664;2022-07-29T14:01:35;9.77;;;4.32;;
69771;SDS011;57046;45.988;18.664;2022-07-29T14:04:00;4.77;;;4.27;;
69771;SDS011;57046;45.988;18.664;2022-07-29T14:06:26;7.00;;;4.10;;
69771;SDS011;57046;45.988;18.664;2022-07-29T14:08:51;6.68;;;4.57;;
69771;SDS011;57046;45.988;18.664;2022-07-29T14:11:17;6.57;;;4.53;;
69771;SDS011;57046;45.988;18.664;2022-07-29T14:13:42;10.43;;;4.10;;
69771;SDS011;57046;45.988;18.664;2022-07-29T14:16:07;6.07;;;4.50;;
69771;SDS011;57046;45.988;18.664;2022-07-29T14:18:33;6.63;;;4.60;;
69771;SDS011;57046;45.988;18.664;2022-07-29T14:20:58;5.95;;;4.53;;
69771;SDS011;57046;45.988;18.664;2022-07-29T14:23:24;6.03;;;3.93;;
69771;SDS011;57046;45.988;18.664;2022-07-29T14:25:49;5.40;;;4.90;;
69771;SDS011;57046;45.988;18.664;2022-07-29T14:28:14;4.83;;;4.33;;
69771;SDS011;57046;45.988;18.664;2022-07-29T14:30:40;5.03;;;4.53;;
69771;SDS011;57046;45.988;18.664;2022-07-29T14:33:05;5.50;;;4.40;;
69771;SDS011;57046;45.988;18.664;2022-07-29T14:35:31;6.40;;;4.63;;
69771;SDS011;57046;45.988;18.664;2022-07-29T14:37:56;5.53;;;4.53;;
69771;SDS011;57046;45.988;18.664;2022-07-29T14:40:21;5.67;;;4.40;;
69771;SDS011;57046;45.988;18.664;2022-07-29T14:42:47;6.33;;;4.40;;
69771;SDS011;57046;45.988;18.664;2022-07-29T14:45:12;6.50;;;4.00;;
69771;SDS011;57046;45.988;18.664;2022-07-29T14:47:38;4.93;;;4.43;;
69771;SDS011;57046;45.988;18.664;2022-07-29T14:50:04;5.80;;;4.40;;
69771;SDS011;57046;45.988;18.664;2022-07-29T14:52:30;6.20;;;4.38;;
69771;SDS011;57046;45.988;18.664;2022-07-29T14:54:55;5.20;;;4.60;;
69771;SDS011;57046;45.988;18.664;2022-07-29T14:57:21;5.97;;;4.72;;
69771;SDS011;57046;45.988;18.664;2022-07-29T14:59:46;5.50;;;4.97;;
69771;SDS011;57046;45.988;18.664;2022-07-29T15:02:11;5.47;;;4.90;;
69771;SDS011;57046;45.988;18.664;2022-07-29T15:04:37;6.50;;;4.90;;
69771;SDS011;57046;45.988;18.664;2022-07-29T15:07:02;5.00;;;4.30;;
69771;SDS011;57046;45.988;18.664;2022-07-29T15:09:28;5.83;;;4.43;;
69771;SDS011;57046;45.988;18.664;2022-07-29T15:11:53;6.67;;;4.40;;
69771;SDS011;57046;45.988;18.664;2022-07-29T15:14:19;5.90;;;4.00;;
69771;SDS011;57046;45.988;18.664;2022-07-29T15:16:44;5.83;;;4.43;;